首页
METAR-TAF:

METAR-TAF

机场 :

康科德, 北卡罗来纳州, 美国

纬度: 35-23-07N, 经度: 080-42-35W, 海拔: 210米

当前天气观测

该预报发布于7小时和23分钟前的03:50 UTC
静风
温度 3°C
湿度 87%
气压 1025 hPa
能見度: 16.1公里
天空无云

METAR: KJQF 220350Z 00000KT 10SM CLR 03/01 A3028

时间: 06:13 (11:13 UTC)


TAF: 丢失

超过4000个机场的气象观测和天气预报(METAR&TAF报告)。

可查询的气象台以黄色和红色小点在地图上表示。

将鼠标移到小点上方,可查看气象台名称。

然后点击查看天气观测和预报。

如需切换地图:点击带黑十字的绿色按钮放大地图;点击带横线的绿色按钮缩小地图;或者点击绿色箭头查看邻近地区的地图。


METAR-TAF: